sensor_id;sensor_type;location;lat;lon;timestamp;P1;durP1;ratioP1;P2;durP2;ratioP2
25962;SDS011;13760;52.588;13.406;2023-01-06T00:01:29;10.27;;;3.70;;
25962;SDS011;13760;52.588;13.406;2023-01-06T00:03:55;11.60;;;3.03;;
25962;SDS011;13760;52.588;13.406;2023-01-06T00:06:24;8.05;;;2.80;;
25962;SDS011;13760;52.588;13.406;2023-01-06T00:08:52;9.75;;;3.30;;
25962;SDS011;13760;52.588;13.406;2023-01-06T00:11:21;7.43;;;2.47;;
25962;SDS011;13760;52.588;13.406;2023-01-06T00:13:47;8.85;;;2.50;;
25962;SDS011;13760;52.588;13.406;2023-01-06T00:16:14;8.73;;;2.58;;
25962;SDS011;13760;52.588;13.406;2023-01-06T00:18:42;8.52;;;2.40;;
25962;SDS011;13760;52.588;13.406;2023-01-06T00:21:08;10.50;;;2.65;;
25962;SDS011;13760;52.588;13.406;2023-01-06T00:23:34;7.70;;;2.38;;
25962;SDS011;13760;52.588;13.406;2023-01-06T00:26:01;8.43;;;2.42;;
25962;SDS011;13760;52.588;13.406;2023-01-06T00:28:27;7.97;;;2.55;;
25962;SDS011;13760;52.588;13.406;2023-01-06T00:30:53;11.75;;;2.63;;
25962;SDS011;13760;52.588;13.406;2023-01-06T00:33:19;6.60;;;2.30;;
25962;SDS011;13760;52.588;13.406;2023-01-06T00:35:44;7.68;;;2.30;;
25962;SDS011;13760;52.588;13.406;2023-01-06T00:38:10;8.57;;;2.40;;
25962;SDS011;13760;52.588;13.406;2023-01-06T00:40:36;9.80;;;2.28;;
25962;SDS011;13760;52.588;13.406;2023-01-06T00:43:02;6.22;;;2.30;;
25962;SDS011;13760;52.588;13.406;2023-01-06T00:45:29;6.95;;;2.42;;
25962;SDS011;13760;52.588;13.406;2023-01-06T00:47:55;7.97;;;2.85;;
25962;SDS011;13760;52.588;13.406;2023-01-06T00:50:20;9.10;;;2.47;;
25962;SDS011;13760;52.588;13.406;2023-01-06T00:52:46;9.00;;;2.95;;
25962;SDS011;13760;52.588;13.406;2023-01-06T00:55:12;11.40;;;2.40;;
25962;SDS011;13760;52.588;13.406;2023-01-06T00:57:38;6.07;;;2.53;;
25962;SDS011;13760;52.588;13.406;2023-01-06T01:00:05;6.47;;;3.00;;
25962;SDS011;13760;52.588;13.406;2023-01-06T01:02:32;7.72;;;2.47;;
25962;SDS011;13760;52.588;13.406;2023-01-06T01:04:58;7.15;;;2.38;;
25962;SDS011;13760;52.588;13.406;2023-01-06T01:07:23;7.18;;;2.88;;
25962;SDS011;13760;52.588;13.406;2023-01-06T01:09:49;8.85;;;2.67;;
25962;SDS011;13760;52.588;13.406;2023-01-06T01:12:14;8.68;;;2.55;;
25962;SDS011;13760;52.588;13.406;2023-01-06T01:14:47;11.82;;;2.85;;
25962;SDS011;13760;52.588;13.406;2023-01-06T01:17:24;7.03;;;2.50;;
25962;SDS011;13760;52.588;13.406;2023-01-06T01:19:52;5.38;;;2.30;;
25962;SDS011;13760;52.588;13.406;2023-01-06T01:22:19;6.82;;;2.70;;
25962;SDS011;13760;52.588;13.406;2023-01-06T01:24:45;12.63;;;2.50;;
25962;SDS011;13760;52.588;13.406;2023-01-06T01:27:11;7.85;;;2.40;;
25962;SDS011;13760;52.588;13.406;2023-01-06T01:29:36;9.20;;;3.00;;
25962;SDS011;13760;52.588;13.406;2023-01-06T01:32:02;9.70;;;2.70;;
25962;SDS011;13760;52.588;13.406;2023-01-06T01:34:28;8.38;;;3.03;;
25962;SDS011;13760;52.588;13.406;2023-01-06T01:36:53;5.93;;;2.50;;
25962;SDS011;13760;52.588;13.406;2023-01-06T01:39:21;10.73;;;2.90;;
25962;SDS011;13760;52.588;13.406;2023-01-06T01:41:50;11.55;;;2.67;;
25962;SDS011;13760;52.588;13.406;2023-01-06T01:47:32;6.28;;;2.85;;
25962;SDS011;13760;52.588;13.406;2023-01-06T01:52:53;6.78;;;2.70;;
25962;SDS011;13760;52.588;13.406;2023-01-06T01:55:22;9.10;;;2.90;;
25962;SDS011;13760;52.588;13.406;2023-01-06T01:57:57;9.38;;;2.83;;
25962;SDS011;13760;52.588;13.406;2023-01-06T02:00:26;8.45;;;2.67;;
25962;SDS011;13760;52.588;13.406;2023-01-06T02:02:52;10.02;;;2.80;;
25962;SDS011;13760;52.588;13.406;2023-01-06T02:05:19;11.65;;;2.60;;
25962;SDS011;13760;52.588;13.406;2023-01-06T02:07:47;7.80;;;2.58;;
25962;SDS011;13760;52.588;13.406;2023-01-06T02:10:14;6.43;;;2.28;;
25962;SDS011;13760;52.588;13.406;2023-01-06T02:12:45;11.30;;;2.85;;
25962;SDS011;13760;52.588;13.406;2023-01-06T02:15:19;8.95;;;3.00;;
25962;SDS011;13760;52.588;13.406;2023-01-06T02:20:20;6.82;;;2.47;;
25962;SDS011;13760;52.588;13.406;2023-01-06T02:36:59;8.32;;;2.75;;
25962;SDS011;13760;52.588;13.406;2023-01-06T02:39:42;8.50;;;2.45;;
25962;SDS011;13760;52.588;13.406;2023-01-06T02:42:21;4.68;;;2.10;;
25962;SDS011;13760;52.588;13.406;2023-01-06T02:45:07;4.25;;;1.90;;
25962;SDS011;13760;52.588;13.406;2023-01-06T02:47:50;10.90;;;2.80;;
25962;SDS011;13760;52.588;13.406;2023-01-06T02:52:54;6.80;;;2.45;;
25962;SDS011;13760;52.588;13.406;2023-01-06T02:55:31;10.90;;;2.53;;
25962;SDS011;13760;52.588;13.406;2023-01-06T02:58:12;12.52;;;2.20;;
25962;SDS011;13760;52.588;13.406;2023-01-06T03:00:40;7.18;;;1.75;;
25962;SDS011;13760;52.588;13.406;2023-01-06T03:03:10;8.60;;;1.88;;
25962;SDS011;13760;52.588;13.406;2023-01-06T03:05:39;12.67;;;2.33;;
25962;SDS011;13760;52.588;13.406;2023-01-06T03:08:08;6.63;;;1.83;;
25962;SDS011;13760;52.588;13.406;2023-01-06T03:10:38;7.47;;;1.70;;
25962;SDS011;13760;52.588;13.406;2023-01-06T03:13:11;8.23;;;1.88;;
25962;SDS011;13760;52.588;13.406;2023-01-06T03:15:41;5.85;;;1.90;;
25962;SDS011;13760;52.588;13.406;2023-01-06T03:18:06;8.05;;;1.67;;
25962;SDS011;13760;52.588;13.406;2023-01-06T03:20:32;6.07;;;1.67;;
25962;SDS011;13760;52.588;13.406;2023-01-06T03:22:58;4.57;;;1.42;;
25962;SDS011;13760;52.588;13.406;2023-01-06T03:25:23;6.43;;;1.58;;
25962;SDS011;13760;52.588;13.406;2023-01-06T03:27:49;6.65;;;1.42;;
25962;SDS011;13760;52.588;13.406;2023-01-06T03:30:14;10.35;;;1.80;;
25962;SDS011;13760;52.588;13.406;2023-01-06T03:32:45;3.60;;;1.33;;
25962;SDS011;13760;52.588;13.406;2023-01-06T03:35:34;7.32;;;1.83;;
25962;SDS011;13760;52.588;13.406;2023-01-06T03:38:36;7.20;;;1.42;;
25962;SDS011;13760;52.588;13.406;2023-01-06T03:41:09;5.82;;;1.48;;
25962;SDS011;13760;52.588;13.406;2023-01-06T03:43:48;5.45;;;1.48;;
25962;SDS011;13760;52.588;13.406;2023-01-06T03:46:26;5.07;;;1.45;;
25962;SDS011;13760;52.588;13.406;2023-01-06T03:49:08;5.93;;;1.75;;
25962;SDS011;13760;52.588;13.406;2023-01-06T03:57:02;3.33;;;1.55;;
25962;SDS011;13760;52.588;13.406;2023-01-06T03:59:42;3.67;;;1.23;;
25962;SDS011;13760;52.588;13.406;2023-01-06T04:02:12;3.97;;;1.60;;
25962;SDS011;13760;52.588;13.406;2023-01-06T04:04:38;5.60;;;1.55;;
25962;SDS011;13760;52.588;13.406;2023-01-06T04:07:03;7.00;;;2.17;;
25962;SDS011;13760;52.588;13.406;2023-01-06T04:09:29;5.68;;;1.35;;
25962;SDS011;13760;52.588;13.406;2023-01-06T04:11:55;7.80;;;1.73;;
25962;SDS011;13760;52.588;13.406;2023-01-06T04:14:39;7.13;;;1.90;;
25962;SDS011;13760;52.588;13.406;2023-01-06T04:17:04;13.43;;;2.33;;
25962;SDS011;13760;52.588;13.406;2023-01-06T04:19:30;6.03;;;1.90;;
25962;SDS011;13760;52.588;13.406;2023-01-06T04:21:55;12.85;;;2.42;;
25962;SDS011;13760;52.588;13.406;2023-01-06T04:24:21;2.58;;;1.30;;
25962;SDS011;13760;52.588;13.406;2023-01-06T04:26:47;5.10;;;1.63;;
25962;SDS011;13760;52.588;13.406;2023-01-06T04:29:12;7.57;;;1.63;;
25962;SDS011;13760;52.588;13.406;2023-01-06T04:31:38;5.72;;;1.40;;
25962;SDS011;13760;52.588;13.406;2023-01-06T04:34:03;6.93;;;2.10;;
25962;SDS011;13760;52.588;13.406;2023-01-06T04:36:29;5.72;;;1.60;;
25962;SDS011;13760;52.588;13.406;2023-01-06T04:38:55;3.63;;;1.42;;
25962;SDS011;13760;52.588;13.406;2023-01-06T04:41:20;6.47;;;1.55;;
25962;SDS011;13760;52.588;13.406;2023-01-06T04:43:47;5.22;;;1.52;;
25962;SDS011;13760;52.588;13.406;2023-01-06T04:46:12;4.85;;;1.50;;
25962;SDS011;13760;52.588;13.406;2023-01-06T04:48:38;6.22;;;1.70;;
25962;SDS011;13760;52.588;13.406;2023-01-06T04:51:05;5.78;;;1.70;;
25962;SDS011;13760;52.588;13.406;2023-01-06T04:53:32;3.65;;;1.38;;
25962;SDS011;13760;52.588;13.406;2023-01-06T04:56:02;7.55;;;1.70;;
25962;SDS011;13760;52.588;13.406;2023-01-06T04:58:29;6.22;;;1.75;;
25962;SDS011;13760;52.588;13.406;2023-01-06T05:01:01;4.90;;;1.48;;
25962;SDS011;13760;52.588;13.406;2023-01-06T05:03:29;6.78;;;2.05;;
25962;SDS011;13760;52.588;13.406;2023-01-06T05:05:55;5.40;;;1.70;;
25962;SDS011;13760;52.588;13.406;2023-01-06T05:08:24;5.05;;;1.75;;
25962;SDS011;13760;52.588;13.406;2023-01-06T05:10:50;6.05;;;2.00;;
25962;SDS011;13760;52.588;13.406;2023-01-06T05:13:26;11.27;;;1.80;;
25962;SDS011;13760;52.588;13.406;2023-01-06T05:15:53;3.65;;;1.67;;
25962;SDS011;13760;52.588;13.406;2023-01-06T05:18:18;3.90;;;1.73;;
25962;SDS011;13760;52.588;13.406;2023-01-06T05:20:47;6.20;;;2.03;;
25962;SDS011;13760;52.588;13.406;2023-01-06T05:23:19;5.95;;;1.50;;
25962;SDS011;13760;52.588;13.406;2023-01-06T05:25:45;4.40;;;1.30;;
25962;SDS011;13760;52.588;13.406;2023-01-06T05:28:11;5.10;;;1.40;;
25962;SDS011;13760;52.588;13.406;2023-01-06T05:30:39;5.45;;;1.55;;
25962;SDS011;13760;52.588;13.406;2023-01-06T05:33:18;8.80;;;2.00;;
25962;SDS011;13760;52.588;13.406;2023-01-06T05:35:57;7.05;;;1.88;;
25962;SDS011;13760;52.588;13.406;2023-01-06T05:38:23;7.57;;;1.80;;
25962;SDS011;13760;52.588;13.406;2023-01-06T05:40:51;4.32;;;1.60;;
25962;SDS011;13760;52.588;13.406;2023-01-06T05:43:18;6.90;;;2.03;;
25962;SDS011;13760;52.588;13.406;2023-01-06T05:45:47;7.25;;;2.47;;
25962;SDS011;13760;52.588;13.406;2023-01-06T05:48:13;5.80;;;1.60;;
25962;SDS011;13760;52.588;13.406;2023-01-06T05:50:39;4.97;;;2.13;;
25962;SDS011;13760;52.588;13.406;2023-01-06T05:53:04;11.00;;;2.22;;
25962;SDS011;13760;52.588;13.406;2023-01-06T05:55:30;6.13;;;1.92;;
25962;SDS011;13760;52.588;13.406;2023-01-06T05:57:55;8.00;;;2.53;;
25962;SDS011;13760;52.588;13.406;2023-01-06T06:00:21;9.13;;;2.53;;
25962;SDS011;13760;52.588;13.406;2023-01-06T06:02:47;6.00;;;2.20;;
25962;SDS011;13760;52.588;13.406;2023-01-06T06:05:12;10.15;;;2.40;;
25962;SDS011;13760;52.588;13.406;2023-01-06T06:07:39;6.93;;;2.40;;
25962;SDS011;13760;52.588;13.406;2023-01-06T06:10:05;10.63;;;2.38;;
25962;SDS011;13760;52.588;13.406;2023-01-06T06:12:31;7.25;;;2.50;;
25962;SDS011;13760;52.588;13.406;2023-01-06T06:14:57;12.13;;;2.58;;
25962;SDS011;13760;52.588;13.406;2023-01-06T06:17:23;16.58;;;3.00;;
25962;SDS011;13760;52.588;13.406;2023-01-06T06:19:49;9.48;;;2.80;;
25962;SDS011;13760;52.588;13.406;2023-01-06T06:22:14;8.70;;;2.95;;
25962;SDS011;13760;52.588;13.406;2023-01-06T06:24:40;11.70;;;2.90;;
25962;SDS011;13760;52.588;13.406;2023-01-06T06:27:06;9.07;;;2.85;;
25962;SDS011;13760;52.588;13.406;2023-01-06T06:29:31;6.38;;;2.95;;
25962;SDS011;13760;52.588;13.406;2023-01-06T06:31:58;12.43;;;3.00;;
25962;SDS011;13760;52.588;13.406;2023-01-06T06:34:24;12.00;;;3.33;;
25962;SDS011;13760;52.588;13.406;2023-01-06T06:36:49;11.27;;;2.97;;
25962;SDS011;13760;52.588;13.406;2023-01-06T06:39:15;12.98;;;2.83;;
25962;SDS011;13760;52.588;13.406;2023-01-06T06:41:41;10.60;;;3.17;;
25962;SDS011;13760;52.588;13.406;2023-01-06T06:44:06;13.23;;;3.90;;
25962;SDS011;13760;52.588;13.406;2023-01-06T06:46:32;11.02;;;3.72;;
25962;SDS011;13760;52.588;13.406;2023-01-06T06:48:57;10.15;;;3.40;;
25962;SDS011;13760;52.588;13.406;2023-01-06T06:51:23;11.73;;;3.50;;
25962;SDS011;13760;52.588;13.406;2023-01-06T06:53:48;14.73;;;4.15;;
25962;SDS011;13760;52.588;13.406;2023-01-06T06:56:15;9.98;;;3.17;;
25962;SDS011;13760;52.588;13.406;2023-01-06T06:58:41;9.40;;;3.33;;
25962;SDS011;13760;52.588;13.406;2023-01-06T07:01:08;10.77;;;3.20;;
25962;SDS011;13760;52.588;13.406;2023-01-06T07:03:38;14.23;;;4.25;;
25962;SDS011;13760;52.588;13.406;2023-01-06T07:06:05;13.70;;;4.10;;
25962;SDS011;13760;52.588;13.406;2023-01-06T07:08:33;8.77;;;3.70;;
25962;SDS011;13760;52.588;13.406;2023-01-06T07:10:59;12.02;;;3.85;;
25962;SDS011;13760;52.588;13.406;2023-01-06T07:13:24;11.95;;;4.20;;
25962;SDS011;13760;52.588;13.406;2023-01-06T07:15:50;11.23;;;4.20;;
25962;SDS011;13760;52.588;13.406;2023-01-06T07:18:15;15.65;;;4.75;;
25962;SDS011;13760;52.588;13.406;2023-01-06T07:20:45;16.65;;;4.65;;
25962;SDS011;13760;52.588;13.406;2023-01-06T07:23:12;11.77;;;4.90;;
25962;SDS011;13760;52.588;13.406;2023-01-06T07:25:38;13.43;;;5.00;;
25962;SDS011;13760;52.588;13.406;2023-01-06T07:28:04;10.68;;;4.90;;
25962;SDS011;13760;52.588;13.406;2023-01-06T07:30:31;17.25;;;5.50;;
25962;SDS011;13760;52.588;13.406;2023-01-06T07:32:57;16.02;;;4.82;;
25962;SDS011;13760;52.588;13.406;2023-01-06T07:35:22;14.95;;;5.35;;
25962;SDS011;13760;52.588;13.406;2023-01-06T07:37:48;13.18;;;5.70;;
25962;SDS011;13760;52.588;13.406;2023-01-06T07:40:14;21.17;;;6.28;;
25962;SDS011;13760;52.588;13.406;2023-01-06T07:42:41;20.60;;;5.95;;
25962;SDS011;13760;52.588;13.406;2023-01-06T07:45:07;15.77;;;6.63;;
25962;SDS011;13760;52.588;13.406;2023-01-06T07:47:33;14.35;;;7.10;;
25962;SDS011;13760;52.588;13.406;2023-01-06T07:49:58;22.52;;;7.43;;
25962;SDS011;13760;52.588;13.406;2023-01-06T07:52:24;18.85;;;7.38;;
25962;SDS011;13760;52.588;13.406;2023-01-06T07:54:49;18.30;;;7.53;;
25962;SDS011;13760;52.588;13.406;2023-01-06T07:57:15;17.90;;;8.43;;
25962;SDS011;13760;52.588;13.406;2023-01-06T07:59:40;17.50;;;8.40;;
25962;SDS011;13760;52.588;13.406;2023-01-06T08:02:06;19.40;;;8.48;;
25962;SDS011;13760;52.588;13.406;2023-01-06T08:04:34;25.33;;;9.70;;
25962;SDS011;13760;52.588;13.406;2023-01-06T08:07:00;27.02;;;9.57;;
25962;SDS011;13760;52.588;13.406;2023-01-06T08:09:25;19.83;;;9.80;;
25962;SDS011;13760;52.588;13.406;2023-01-06T08:11:51;20.10;;;10.45;;
25962;SDS011;13760;52.588;13.406;2023-01-06T08:14:16;25.13;;;12.38;;
25962;SDS011;13760;52.588;13.406;2023-01-06T08:16:42;23.38;;;12.27;;
25962;SDS011;13760;52.588;13.406;2023-01-06T08:19:08;66.30;;;21.52;;
25962;SDS011;13760;52.588;13.406;2023-01-06T08:21:33;21.98;;;11.48;;
25962;SDS011;13760;52.588;13.406;2023-01-06T08:23:59;28.45;;;14.05;;
25962;SDS011;13760;52.588;13.406;2023-01-06T08:26:24;28.52;;;12.60;;
25962;SDS011;13760;52.588;13.406;2023-01-06T08:28:50;24.73;;;11.45;;
25962;SDS011;13760;52.588;13.406;2023-01-06T08:31:18;33.17;;;12.90;;
25962;SDS011;13760;52.588;13.406;2023-01-06T08:33:44;29.48;;;13.40;;
25962;SDS011;13760;52.588;13.406;2023-01-06T08:36:12;26.35;;;13.23;;
25962;SDS011;13760;52.588;13.406;2023-01-06T08:38:39;26.40;;;13.77;;
25962;SDS011;13760;52.588;13.406;2023-01-06T08:41:05;37.28;;;15.00;;
25962;SDS011;13760;52.588;13.406;2023-01-06T08:43:32;29.30;;;13.77;;
25962;SDS011;13760;52.588;13.406;2023-01-06T08:46:02;32.50;;;14.40;;
25962;SDS011;13760;52.588;13.406;2023-01-06T08:48:29;27.48;;;13.73;;
25962;SDS011;13760;52.588;13.406;2023-01-06T08:51:00;25.58;;;13.15;;
25962;SDS011;13760;52.588;13.406;2023-01-06T08:53:34;28.58;;;14.30;;
25962;SDS011;13760;52.588;13.406;2023-01-06T08:56:00;29.10;;;14.10;;
25962;SDS011;13760;52.588;13.406;2023-01-06T08:58:25;32.05;;;14.95;;
25962;SDS011;13760;52.588;13.406;2023-01-06T09:00:51;34.33;;;14.57;;
25962;SDS011;13760;52.588;13.406;2023-01-06T09:03:17;27.25;;;14.35;;
25962;SDS011;13760;52.588;13.406;2023-01-06T09:05:42;32.17;;;15.63;;
25962;SDS011;13760;52.588;13.406;2023-01-06T09:08:18;29.55;;;14.70;;
25962;SDS011;13760;52.588;13.406;2023-01-06T09:10:46;37.47;;;15.07;;
25962;SDS011;13760;52.588;13.406;2023-01-06T09:13:11;35.88;;;15.93;;
25962;SDS011;13760;52.588;13.406;2023-01-06T09:15:41;36.58;;;16.33;;
25962;SDS011;13760;52.588;13.406;2023-01-06T09:18:07;40.85;;;16.83;;
25962;SDS011;13760;52.588;13.406;2023-01-06T09:20:33;38.30;;;17.85;;
25962;SDS011;13760;52.588;13.406;2023-01-06T09:22:59;42.10;;;17.27;;
25962;SDS011;13760;52.588;13.406;2023-01-06T09:25:25;33.92;;;18.35;;
25962;SDS011;13760;52.588;13.406;2023-01-06T09:27:50;37.88;;;18.92;;
25962;SDS011;13760;52.588;13.406;2023-01-06T09:30:16;50.20;;;18.90;;
25962;SDS011;13760;52.588;13.406;2023-01-06T09:32:42;49.40;;;19.58;;
25962;SDS011;13760;52.588;13.406;2023-01-06T09:35:07;37.85;;;19.20;;
25962;SDS011;13760;52.588;13.406;2023-01-06T09:37:33;46.25;;;20.58;;
25962;SDS011;13760;52.588;13.406;2023-01-06T09:39:59;36.75;;;19.33;;
25962;SDS011;13760;52.588;13.406;2023-01-06T09:42:30;39.00;;;19.40;;
25962;SDS011;13760;52.588;13.406;2023-01-06T09:45:07;46.33;;;20.27;;
25962;SDS011;13760;52.588;13.406;2023-01-06T09:47:45;36.08;;;19.92;;
25962;SDS011;13760;52.588;13.406;2023-01-06T09:50:29;40.90;;;19.60;;
25962;SDS011;13760;52.588;13.406;2023-01-06T09:53:43;52.78;;;22.15;;
25962;SDS011;13760;52.588;13.406;2023-01-06T09:55:51;44.53;;;21.65;;
25962;SDS011;13760;52.588;13.406;2023-01-06T09:58:23;38.17;;;20.27;;
25962;SDS011;13760;52.588;13.406;2023-01-06T10:00:50;43.45;;;21.58;;
25962;SDS011;13760;52.588;13.406;2023-01-06T10:08:23;47.67;;;21.35;;
25962;SDS011;13760;52.588;13.406;2023-01-06T10:11:13;43.30;;;21.25;;
25962;SDS011;13760;52.588;13.406;2023-01-06T10:21:52;40.33;;;20.38;;
25962;SDS011;13760;52.588;13.406;2023-01-06T10:24:38;38.58;;;19.77;;
25962;SDS011;13760;52.588;13.406;2023-01-06T10:29:50;40.03;;;20.40;;
25962;SDS011;13760;52.588;13.406;2023-01-06T10:32:18;34.35;;;19.17;;
25962;SDS011;13760;52.588;13.406;2023-01-06T10:34:47;39.30;;;19.73;;
25962;SDS011;13760;52.588;13.406;2023-01-06T10:37:28;33.22;;;18.45;;
25962;SDS011;13760;52.588;13.406;2023-01-06T10:42:41;32.63;;;18.73;;
25962;SDS011;13760;52.588;13.406;2023-01-06T10:45:20;39.92;;;19.05;;
25962;SDS011;13760;52.588;13.406;2023-01-06T10:47:47;30.90;;;18.08;;
25962;SDS011;13760;52.588;13.406;2023-01-06T10:50:14;34.17;;;18.60;;
25962;SDS011;13760;52.588;13.406;2023-01-06T10:52:42;33.45;;;18.67;;
25962;SDS011;13760;52.588;13.406;2023-01-06T10:55:12;32.75;;;18.45;;
25962;SDS011;13760;52.588;13.406;2023-01-06T10:58:12;27.67;;;17.55;;
25962;SDS011;13760;52.588;13.406;2023-01-06T11:00:52;30.75;;;17.52;;
25962;SDS011;13760;52.588;13.406;2023-01-06T11:03:22;29.60;;;17.60;;
25962;SDS011;13760;52.588;13.406;2023-01-06T11:05:51;28.85;;;17.60;;
25962;SDS011;13760;52.588;13.406;2023-01-06T11:08:25;33.17;;;17.23;;
25962;SDS011;13760;52.588;13.406;2023-01-06T11:10:52;35.97;;;18.25;;
25962;SDS011;13760;52.588;13.406;2023-01-06T11:15:55;31.10;;;16.70;;
25962;SDS011;13760;52.588;13.406;2023-01-06T11:18:41;33.13;;;17.83;;
25962;SDS011;13760;52.588;13.406;2023-01-06T11:23:34;30.02;;;16.77;;
25962;SDS011;13760;52.588;13.406;2023-01-06T11:28:32;30.63;;;17.98;;
25962;SDS011;13760;52.588;13.406;2023-01-06T11:30:59;29.98;;;17.20;;
25962;SDS011;13760;52.588;13.406;2023-01-06T11:33:28;35.30;;;17.83;;
25962;SDS011;13760;52.588;13.406;2023-01-06T11:35:55;32.55;;;18.00;;
25962;SDS011;13760;52.588;13.406;2023-01-06T11:38:21;41.30;;;20.05;;
25962;SDS011;13760;52.588;13.406;2023-01-06T11:40:49;34.20;;;18.38;;
25962;SDS011;13760;52.588;13.406;2023-01-06T11:43:22;35.17;;;18.30;;
25962;SDS011;13760;52.588;13.406;2023-01-06T11:45:55;35.30;;;19.27;;
25962;SDS011;13760;52.588;13.406;2023-01-06T11:48:33;40.95;;;18.73;;
25962;SDS011;13760;52.588;13.406;2023-01-06T11:51:00;35.20;;;17.80;;
25962;SDS011;13760;52.588;13.406;2023-01-06T11:53:32;37.78;;;17.30;;
25962;SDS011;13760;52.588;13.406;2023-01-06T11:55:59;34.65;;;18.08;;
25962;SDS011;13760;52.588;13.406;2023-01-06T11:58:35;36.67;;;19.08;;
25962;SDS011;13760;52.588;13.406;2023-01-06T12:01:31;39.70;;;19.02;;
25962;SDS011;13760;52.588;13.406;2023-01-06T12:06:39;38.90;;;19.17;;
25962;SDS011;13760;52.588;13.406;2023-01-06T12:09:21;33.72;;;18.85;;
25962;SDS011;13760;52.588;13.406;2023-01-06T12:11:53;44.85;;;21.40;;
25962;SDS011;13760;52.588;13.406;2023-01-06T12:14:27;39.25;;;19.90;;
25962;SDS011;13760;52.588;13.406;2023-01-06T12:17:23;41.35;;;20.75;;
25962;SDS011;13760;52.588;13.406;2023-01-06T12:20:14;39.28;;;21.30;;
25962;SDS011;13760;52.588;13.406;2023-01-06T12:22:56;45.10;;;22.85;;
25962;SDS011;13760;52.588;13.406;2023-01-06T12:27:55;43.03;;;20.42;;
25962;SDS011;13760;52.588;13.406;2023-01-06T12:30:44;36.13;;;19.13;;
25962;SDS011;13760;52.588;13.406;2023-01-06T12:33:25;30.38;;;15.80;;
25962;SDS011;13760;52.588;13.406;2023-01-06T12:35:59;30.52;;;15.18;;
25962;SDS011;13760;52.588;13.406;2023-01-06T12:38:31;21.83;;;12.18;;
25962;SDS011;13760;52.588;13.406;2023-01-06T12:41:19;17.40;;;10.60;;
25962;SDS011;13760;52.588;13.406;2023-01-06T12:46:46;17.75;;;10.38;;
25962;SDS011;13760;52.588;13.406;2023-01-06T12:49:38;20.08;;;10.68;;
25962;SDS011;13760;52.588;13.406;2023-01-06T12:52:21;19.63;;;10.48;;
25962;SDS011;13760;52.588;13.406;2023-01-06T12:54:52;17.52;;;8.88;;
25962;SDS011;13760;52.588;13.406;2023-01-06T13:13:48;14.13;;;6.55;;
25962;SDS011;13760;52.588;13.406;2023-01-06T13:21:49;11.90;;;5.60;;
25962;SDS011;13760;52.588;13.406;2023-01-06T13:27:30;10.93;;;5.10;;
25962;SDS011;13760;52.588;13.406;2023-01-06T13:30:27;12.68;;;5.00;;
25962;SDS011;13760;52.588;13.406;2023-01-06T13:41:42;5.82;;;4.20;;
25962;SDS011;13760;52.588;13.406;2023-01-06T13:46:47;6.60;;;4.07;;
25962;SDS011;13760;52.588;13.406;2023-01-06T13:49:17;6.60;;;4.03;;
25962;SDS011;13760;52.588;13.406;2023-01-06T13:51:43;6.78;;;3.40;;
25962;SDS011;13760;52.588;13.406;2023-01-06T14:00:06;4.03;;;3.20;;
25962;SDS011;13760;52.588;13.406;2023-01-06T14:07:47;4.50;;;2.72;;
25962;SDS011;13760;52.588;13.406;2023-01-06T14:10:28;5.18;;;2.80;;
25962;SDS011;13760;52.588;13.406;2023-01-06T14:13:02;5.35;;;2.33;;
25962;SDS011;13760;52.588;13.406;2023-01-06T14:15:39;5.68;;;2.22;;
25962;SDS011;13760;52.588;13.406;2023-01-06T14:18:27;4.40;;;2.40;;
25962;SDS011;13760;52.588;13.406;2023-01-06T14:21:03;5.75;;;2.67;;
25962;SDS011;13760;52.588;13.406;2023-01-06T14:23:47;4.40;;;2.95;;
25962;SDS011;13760;52.588;13.406;2023-01-06T14:26:17;4.25;;;2.72;;
25962;SDS011;13760;52.588;13.406;2023-01-06T14:28:43;6.55;;;2.95;;
25962;SDS011;13760;52.588;13.406;2023-01-06T14:33:59;5.07;;;3.10;;
25962;SDS011;13760;52.588;13.406;2023-01-06T14:36:26;4.70;;;2.70;;
25962;SDS011;13760;52.588;13.406;2023-01-06T14:38:56;5.60;;;3.15;;
25962;SDS011;13760;52.588;13.406;2023-01-06T14:41:28;5.90;;;2.90;;
25962;SDS011;13760;52.588;13.406;2023-01-06T14:44:02;4.18;;;3.08;;
25962;SDS011;13760;52.588;13.406;2023-01-06T14:47:03;4.05;;;2.47;;
25962;SDS011;13760;52.588;13.406;2023-01-06T14:52:12;4.35;;;2.40;;
25962;SDS011;13760;52.588;13.406;2023-01-06T14:54:42;4.22;;;2.70;;
25962;SDS011;13760;52.588;13.406;2023-01-06T14:57:23;4.30;;;2.83;;
25962;SDS011;13760;52.588;13.406;2023-01-06T15:00:05;5.10;;;2.75;;
25962;SDS011;13760;52.588;13.406;2023-01-06T15:02:31;3.75;;;2.40;;
25962;SDS011;13760;52.588;13.406;2023-01-06T15:04:57;3.10;;;2.58;;
25962;SDS011;13760;52.588;13.406;2023-01-06T15:07:23;6.85;;;2.50;;
25962;SDS011;13760;52.588;13.406;2023-01-06T15:09:49;3.88;;;2.50;;
25962;SDS011;13760;52.588;13.406;2023-01-06T15:12:22;3.47;;;2.83;;
25962;SDS011;13760;52.588;13.406;2023-01-06T15:14:48;6.25;;;3.00;;
25962;SDS011;13760;52.588;13.406;2023-01-06T15:17:14;6.47;;;2.83;;
25962;SDS011;13760;52.588;13.406;2023-01-06T15:19:41;5.18;;;2.85;;
25962;SDS011;13760;52.588;13.406;2023-01-06T15:22:08;4.38;;;2.50;;
25962;SDS011;13760;52.588;13.406;2023-01-06T15:24:36;3.50;;;2.75;;
25962;SDS011;13760;52.588;13.406;2023-01-06T15:27:12;3.78;;;2.60;;
25962;SDS011;13760;52.588;13.406;2023-01-06T15:29:48;5.75;;;3.40;;
25962;SDS011;13760;52.588;13.406;2023-01-06T15:32:14;5.07;;;3.00;;
25962;SDS011;13760;52.588;13.406;2023-01-06T15:34:41;5.47;;;3.47;;
25962;SDS011;13760;52.588;13.406;2023-01-06T15:37:14;6.85;;;3.60;;
25962;SDS011;13760;52.588;13.406;2023-01-06T15:39:43;4.72;;;3.50;;
25962;SDS011;13760;52.588;13.406;2023-01-06T15:42:09;5.85;;;3.75;;
25962;SDS011;13760;52.588;13.406;2023-01-06T15:44:37;6.82;;;3.85;;
25962;SDS011;13760;52.588;13.406;2023-01-06T15:49:35;5.53;;;3.90;;
25962;SDS011;13760;52.588;13.406;2023-01-06T15:52:06;4.68;;;4.00;;
25962;SDS011;13760;52.588;13.406;2023-01-06T15:54:37;5.57;;;4.40;;
25962;SDS011;13760;52.588;13.406;2023-01-06T15:57:10;9.02;;;4.55;;
25962;SDS011;13760;52.588;13.406;2023-01-06T15:59:37;6.03;;;4.30;;
25962;SDS011;13760;52.588;13.406;2023-01-06T16:02:04;5.63;;;4.53;;
25962;SDS011;13760;52.588;13.406;2023-01-06T16:04:41;8.25;;;4.53;;
25962;SDS011;13760;52.588;13.406;2023-01-06T16:15:54;6.20;;;4.00;;
25962;SDS011;13760;52.588;13.406;2023-01-06T16:18:32;5.35;;;3.80;;
25962;SDS011;13760;52.588;13.406;2023-01-06T16:21:01;6.00;;;3.90;;
25962;SDS011;13760;52.588;13.406;2023-01-06T16:23:48;5.55;;;3.85;;
25962;SDS011;13760;52.588;13.406;2023-01-06T16:26:19;5.07;;;4.03;;
25962;SDS011;13760;52.588;13.406;2023-01-06T16:28:48;6.93;;;5.32;;
25962;SDS011;13760;52.588;13.406;2023-01-06T16:34:13;7.30;;;5.20;;
25962;SDS011;13760;52.588;13.406;2023-01-06T16:36:41;6.30;;;5.10;;
25962;SDS011;13760;52.588;13.406;2023-01-06T16:39:06;5.93;;;5.30;;
25962;SDS011;13760;52.588;13.406;2023-01-06T16:41:32;6.50;;;5.38;;
25962;SDS011;13760;52.588;13.406;2023-01-06T16:43:57;6.57;;;5.47;;
25962;SDS011;13760;52.588;13.406;2023-01-06T16:46:23;6.68;;;5.95;;
25962;SDS011;13760;52.588;13.406;2023-01-06T16:48:51;9.55;;;6.78;;
25962;SDS011;13760;52.588;13.406;2023-01-06T16:51:19;6.63;;;5.95;;
25962;SDS011;13760;52.588;13.406;2023-01-06T16:53:46;7.70;;;6.90;;